Time;durP1;ratioP1;P1;durP2;ratioP2;P2;SDS_P1;SDS_P2;PMS_P1;PMS_P2;Temp;Humidity;BMP_temperature;BMP_pressure;BME280_temperature;BME280_humidity;BME280_pressure;Samples;Min_cycle;Max_cycle;Signal;HPM_P1;HPM_P2
2022/10/04 00:02:20;;;;;;;;;;;;;;;19.69;74.47;97096.02;597136;236;65131;-70
2022/10/04 00:04:50;;;;;;;;;;;;;;;19.68;75.46;97083.75;597010;237;65556;-70
2022/10/04 00:07:22;;;;;;;;;;;;;;;19.70;75.17;97094.17;597166;237;66825;-76
2022/10/04 00:09:54;;;;;;;;;;;;;;;19.69;75.04;97100.55;597166;237;62838;-77
2022/10/04 00:12:26;;;;;;;;;;;;;;;19.69;74.25;97092.55;597033;235;64787;-77
2022/10/04 00:14:55;;;;;;;;;;;;;;;19.69;74.00;97103.22;597177;237;66765;-77
2022/10/04 00:17:25;;;;;;;;;;;;;;;19.69;74.65;97100.55;597152;237;65401;-75
2022/10/04 00:19:53;;;;;;;;;;;;;;;19.70;75.14;97100.30;597147;237;64902;-74
2022/10/04 00:22:28;;;;;;;;;;;;;;;19.68;74.74;97102.42;597823;234;67433;-74
2022/10/04 00:25:12;;;;;;;;;;;;;;;19.68;73.64;97102.42;600999;235;62893;-69
2022/10/04 00:27:40;;;;;;;;;;;;;;;19.68;74.65;97097.09;600953;236;67208;-69
2022/10/04 00:30:18;;;;;;;;;;;;;;;19.68;73.31;97102.42;601064;236;66822;-69
2022/10/04 00:32:47;;;;;;;;;;;;;;;19.67;73.86;97098.16;597799;235;62836;-69
2022/10/04 00:35:28;;;;;;;;;;;;;;;19.68;74.35;97093.62;597145;237;65006;-69
2022/10/04 00:37:58;;;;;;;;;;;;;;;19.68;73.66;97094.42;597126;237;67874;-69
2022/10/04 00:40:29;;;;;;;;;;;;;;;19.68;74.80;97102.42;597840;236;62813;-68
2022/10/04 00:42:59;;;;;;;;;;;;;;;19.68;74.18;97099.75;600982;236;66952;-69
2022/10/04 00:45:28;;;;;;;;;;;;;;;19.66;74.12;97099.20;601027;236;67090;-69
2022/10/04 00:48:00;;;;;;;;;;;;;;;19.67;74.76;97106.16;600933;236;64770;-69
2022/10/04 00:50:29;;;;;;;;;;;;;;;19.67;74.91;97100.83;600885;236;67227;-69
2022/10/04 00:52:57;;;;;;;;;;;;;;;19.66;73.80;97093.07;600936;235;64849;-69
2022/10/04 00:55:32;;;;;;;;;;;;;;;19.67;73.59;97102.66;600958;236;62671;-69
2022/10/04 00:58:00;;;;;;;;;;;;;;;19.67;73.46;97100.83;600765;236;64838;-69
2022/10/04 01:00:32;;;;;;;;;;;;;;;19.67;74.01;97095.49;601030;236;66914;-69
2022/10/04 01:03:02;;;;;;;;;;;;;;;19.66;74.85;97088.53;600888;236;64896;-69
2022/10/04 01:05:31;;;;;;;;;;;;;;;19.67;74.22;97092.00;600981;236;67166;-75
2022/10/04 01:08:00;;;;;;;;;;;;;;;19.66;74.79;97091.20;600940;236;67055;-76
2022/10/04 01:10:32;;;;;;;;;;;;;;;19.66;75.05;97088.53;599352;235;62846;-75
2022/10/04 01:13:18;;;;;;;;;;;;;;;19.65;74.86;97086.12;600807;235;67022;-77
2022/10/04 01:15:50;;;;;;;;;;;;;;;19.65;73.64;97083.45;600999;236;64919;-75
2022/10/04 01:18:19;;;;;;;;;;;;;;;19.65;74.50;97081.58;600952;236;66037;-75
2022/10/04 01:20:51;;;;;;;;;;;;;;;19.64;73.93;97079.98;600969;236;67260;-76
2022/10/04 01:23:37;;;;;;;;;;;;;;;19.66;73.99;97082.41;600936;236;67111;-75
2022/10/04 01:26:06;;;;;;;;;;;;;;;19.66;74.69;97085.08;600962;236;66134;-75
2022/10/04 01:28:34;;;;;;;;;;;;;;;19.65;74.61;97081.58;600963;236;64911;-75
2022/10/04 01:31:01;;;;;;;;;;;;;;;19.63;73.51;97086.36;601012;236;64936;-76
2022/10/04 01:33:30;;;;;;;;;;;;;;;19.66;74.14;97093.07;600960;236;64904;-75
2022/10/04 01:35:57;;;;;;;;;;;;;;;19.65;73.98;97096.78;600954;234;67946;-75
2022/10/04 01:38:25;;;;;;;;;;;;;;;19.64;74.00;97095.98;600909;236;66717;-76
2022/10/04 01:40:53;;;;;;;;;;;;;;;19.66;74.57;97093.07;599661;234;65076;-75
2022/10/04 01:43:22;;;;;;;;;;;;;;;19.65;74.70;97097.58;597707;237;67154;-75
2022/10/04 01:45:51;;;;;;;;;;;;;;;19.65;75.13;97088.78;597656;235;66877;-75
2022/10/04 01:48:20;;;;;;;;;;;;;;;19.63;73.66;97105.02;597690;237;65035;-75
2022/10/04 01:50:54;;;;;;;;;;;;;;;19.65;73.51;97107.45;597670;235;64508;-76
2022/10/04 01:53:29;;;;;;;;;;;;;;;19.64;73.63;97103.98;597697;237;66861;-75
2022/10/04 01:56:04;;;;;;;;;;;;;;;19.65;74.32;97108.24;597648;237;62821;-75
2022/10/04 01:58:33;;;;;;;;;;;;;;;19.65;74.54;97108.24;597668;235;67707;-75
2022/10/04 02:01:04;;;;;;;;;;;;;;;19.64;74.42;97114.65;597652;237;66945;-76
2022/10/04 02:03:36;;;;;;;;;;;;;;;19.65;74.51;97115.44;597475;235;65070;-75
2022/10/04 02:06:05;;;;;;;;;;;;;;;19.63;73.28;97121.02;597694;237;64969;-76
2022/10/04 02:08:34;;;;;;;;;;;;;;;19.65;74.09;97123.44;597692;237;66902;-76
2022/10/04 02:11:04;;;;;;;;;;;;;;;19.64;73.89;97117.31;597715;237;65676;-76
2022/10/04 02:13:33;;;;;;;;;;;;;;;19.63;73.93;97114.89;597673;237;65098;-76
2022/10/04 02:16:02;;;;;;;;;;;;;;;19.64;73.98;97106.65;597645;235;66785;-76
2022/10/04 02:18:33;;;;;;;;;;;;;;;19.63;74.11;97109.56;597673;237;65059;-76
2022/10/04 02:21:00;;;;;;;;;;;;;;;19.64;73.71;97119.98;597732;237;67046;-76
2022/10/04 02:23:28;;;;;;;;;;;;;;;19.63;74.27;97113.02;597740;237;66947;-76
2022/10/04 02:25:55;;;;;;;;;;;;;;;19.63;74.97;97104.23;597728;237;63819;-76
2022/10/04 02:28:23;;;;;;;;;;;;;;;19.62;74.54;97098.10;597638;237;64913;-76
2022/10/04 02:33:39;;;;;;;;;;;;;;;19.63;75.38;97101.56;597707;237;65139;-76
2022/10/04 02:36:08;;;;;;;;;;;;;;;19.62;75.29;97094.64;597699;237;65976;-76
2022/10/04 02:38:37;;;;;;;;;;;;;;;19.62;74.80;97107.97;597713;237;66926;-76
2022/10/04 02:41:24;;;;;;;;;;;;;;;19.62;75.26;97108.77;597570;235;65346;-76
2022/10/04 02:43:54;;;;;;;;;;;;;;;19.62;74.98;97102.64;597693;237;67360;-76
2022/10/04 02:46:23;;;;;;;;;;;;;;;19.61;75.09;97107.14;597698;237;64618;-76
2022/10/04 02:48:52;;;;;;;;;;;;;;;19.61;74.42;97107.14;597675;237;65033;-76
2022/10/04 02:51:21;;;;;;;;;;;;;;;19.61;74.84;97122.34;597682;237;66681;-76
2022/10/04 02:53:56;;;;;;;;;;;;;;;19.61;74.71;97117.01;597689;235;67169;-76
2022/10/04 02:56:25;;;;;;;;;;;;;;;19.61;73.86;97117.80;597726;235;62992;-75
2022/10/04 02:58:53;;;;;;;;;;;;;;;19.61;73.83;97117.01;597678;237;67039;-75
2022/10/04 03:01:25;;;;;;;;;;;;;;;19.61;74.33;97115.14;597691;237;67012;-75
2022/10/04 03:03:54;;;;;;;;;;;;;;;19.60;73.76;97121.55;597675;234;62830;-75
2022/10/04 03:06:23;;;;;;;;;;;;;;;19.61;74.19;97128.47;597675;237;66973;-69
2022/10/04 03:08:52;;;;;;;;;;;;;;;19.60;74.27;97116.21;597719;237;64856;-69
2022/10/04 03:11:21;;;;;;;;;;;;;;;19.60;74.56;97116.21;597708;237;62982;-69
2022/10/04 03:13:50;;;;;;;;;;;;;;;19.61;74.05;97123.14;597653;237;66805;-69
2022/10/04 03:16:18;;;;;;;;;;;;;;;19.60;74.41;97126.87;597658;237;66095;-69
2022/10/04 03:18:46;;;;;;;;;;;;;;;19.61;74.90;97128.47;597670;237;63768;-69
2022/10/04 03:21:15;;;;;;;;;;;;;;;19.61;74.59;97128.47;597711;237;68201;-69
2022/10/04 03:23:45;;;;;;;;;;;;;;;19.60;74.75;97132.20;597722;237;66709;-68
2022/10/04 03:26:23;;;;;;;;;;;;;;;19.60;75.28;97137.54;600042;235;65028;-68
2022/10/04 03:28:52;;;;;;;;;;;;;;;19.61;75.24;97135.67;597741;234;44550;-69
2022/10/04 03:31:20;;;;;;;;;;;;;;;19.60;75.22;97134.87;597717;237;65077;-69
2022/10/04 03:33:48;;;;;;;;;;;;;;;19.60;74.88;97136.74;597702;237;62951;-69
2022/10/04 03:36:17;;;;;;;;;;;;;;;19.59;75.20;97138.61;597794;237;67454;-76
2022/10/04 03:38:46;;;;;;;;;;;;;;;19.60;75.14;97140.20;597700;237;66990;-76
2022/10/04 03:41:15;;;;;;;;;;;;;;;19.59;74.71;97133.28;599362;236;65187;-76
2022/10/04 03:43:44;;;;;;;;;;;;;;;19.59;75.24;97135.95;600933;234;65059;-76
2022/10/04 03:46:13;;;;;;;;;;;;;;;19.60;75.24;97142.87;600980;236;64808;-76
2022/10/04 03:48:45;;;;;;;;;;;;;;;19.59;75.75;97125.28;601008;236;64869;-76
2022/10/04 03:51:14;;;;;;;;;;;;;;;19.58;75.70;97131.66;595719;237;64837;-77
2022/10/04 03:53:46;;;;;;;;;;;;;;;19.59;75.85;97133.28;600619;236;64998;-77
2022/10/04 03:56:15;;;;;;;;;;;;;;;19.58;75.35;97128.98;599642;236;64945;-77
2022/10/04 03:58:43;;;;;;;;;;;;;;;19.59;75.16;97130.61;600756;236;67071;-77
2022/10/04 04:01:29;;;;;;;;;;;;;;;19.59;75.39;97135.95;601008;236;64090;-77
2022/10/04 04:04:01;;;;;;;;;;;;;;;19.59;75.90;97135.95;598333;236;64995;-76
2022/10/04 04:06:32;;;;;;;;;;;;;;;19.58;75.97;97144.98;600902;236;68546;-78
2022/10/04 04:09:01;;;;;;;;;;;;;;;19.58;76.24;97144.98;600951;235;64923;-77
2022/10/04 04:11:29;;;;;;;;;;;;;;;19.58;75.78;97144.98;601009;236;64885;-77
2022/10/04 04:14:10;;;;;;;;;;;;;;;19.57;74.91;97156.72;600983;236;66959;-77
2022/10/04 04:16:38;;;;;;;;;;;;;;;19.57;75.59;97151.39;600906;236;66712;-71
2022/10/04 04:19:07;;;;;;;;;;;;;;;19.57;76.17;97148.72;601044;236;64873;-70
2022/10/04 04:21:36;;;;;;;;;;;;;;;19.56;75.56;97152.46;600947;235;66898;-69
2022/10/04 04:24:04;;;;;;;;;;;;;;;19.57;75.47;97148.72;600960;236;66927;-69
2022/10/04 04:26:42;;;;;;;;;;;;;;;19.57;75.84;97162.05;600971;236;65177;-69
2022/10/04 04:29:14;;;;;;;;;;;;;;;19.57;76.40;97155.92;600952;236;66753;-69
2022/10/04 04:31:43;;;;;;;;;;;;;;;19.57;76.21;97158.59;600971;236;67809;-70
2022/10/04 04:34:23;;;;;;;;;;;;;;;19.56;76.77;97157.79;598268;236;62643;-70
2022/10/04 04:36:51;;;;;;;;;;;;;;;19.56;76.76;97167.63;600992;236;65291;-70
2022/10/04 04:42:07;;;;;;;;;;;;;;;19.56;76.46;97164.96;600897;236;66000;-70
2022/10/04 04:44:35;;;;;;;;;;;;;;;19.56;76.81;97167.63;600916;234;68105;-70
2022/10/04 04:47:04;;;;;;;;;;;;;;;19.55;76.82;97177.49;600951;236;66921;-70
2022/10/04 04:49:31;;;;;;;;;;;;;;;19.55;77.24;97180.16;600989;236;64957;-70
2022/10/04 04:51:59;;;;;;;;;;;;;;;19.55;76.70;97184.70;600970;234;66988;-70
2022/10/04 04:54:28;;;;;;;;;;;;;;;19.55;76.88;97184.70;600971;236;64811;-70
2022/10/04 04:56:56;;;;;;;;;;;;;;;19.54;76.84;97189.23;600968;236;65110;-76
2022/10/04 04:59:26;;;;;;;;;;;;;;;19.54;77.05;97191.09;600942;236;67232;-76
2022/10/04 05:01:53;;;;;;;;;;;;;;;19.54;76.88;97207.89;600974;234;67796;-77
2022/10/04 05:04:22;;;;;;;;;;;;;;;19.55;76.51;97198.02;601009;236;65023;-76
2022/10/04 05:07:01;;;;;;;;;;;;;;;19.54;76.82;97205.22;602210;235;65716;-76
2022/10/04 05:09:35;;;;;;;;;;;;;;;19.54;75.93;97210.55;600965;236;67770;-76
2022/10/04 05:12:10;;;;;;;;;;;;;;;19.55;75.88;97203.35;600950;236;62993;-76
2022/10/04 05:14:40;;;;;;;;;;;;;;;19.55;75.42;97208.69;600936;235;68028;-76
2022/10/04 05:17:09;;;;;;;;;;;;;;;19.55;75.19;97211.35;600992;236;64592;-76
2022/10/04 05:19:38;;;;;;;;;;;;;;;19.54;75.53;97205.22;600985;234;63639;-77
2022/10/04 05:22:12;;;;;;;;;;;;;;;19.55;75.56;97212.14;600999;236;46729;-77
2022/10/04 05:24:41;;;;;;;;;;;;;;;19.54;74.97;97221.22;600813;236;68080;-77
2022/10/04 05:27:16;;;;;;;;;;;;;;;19.55;74.89;97220.14;600968;236;62808;-77
2022/10/04 05:29:49;;;;;;;;;;;;;;;19.55;75.73;97219.34;600908;236;68041;-76
2022/10/04 05:32:35;;;;;;;;;;;;;;;19.55;75.78;97224.68;600576;234;64112;-75
2022/10/04 05:35:04;;;;;;;;;;;;;;;19.54;75.67;97237.21;600897;236;66008;-78
2022/10/04 05:37:36;;;;;;;;;;;;;;;19.55;76.28;97236.14;600553;235;66898;-76
2022/10/04 05:40:05;;;;;;;;;;;;;;;19.54;76.50;97233.75;597418;234;67980;-78
2022/10/04 05:42:34;;;;;;;;;;;;;;;19.54;76.59;97236.41;600977;236;62780;-76
2022/10/04 05:45:01;;;;;;;;;;;;;;;19.53;76.22;97238.25;600882;234;64648;-77
2022/10/04 05:47:30;;;;;;;;;;;;;;;19.52;75.60;97244.66;600964;236;64842;-76
2022/10/04 05:49:59;;;;;;;;;;;;;;;19.52;75.56;97242.78;600909;236;64866;-78
2022/10/04 05:52:34;;;;;;;;;;;;;;;19.54;76.34;97241.74;600893;234;65338;-76
2022/10/04 05:55:16;;;;;;;;;;;;;;;19.54;76.29;97255.87;600967;234;66914;-76
2022/10/04 05:57:51;;;;;;;;;;;;;;;19.53;75.84;97254.24;600833;234;66103;-76
2022/10/04 06:00:20;;;;;;;;;;;;;;;19.54;75.84;97255.87;600919;236;67346;-73
2022/10/04 06:03:01;;;;;;;;;;;;;;;19.52;75.71;97266.77;600849;235;67802;-74
2022/10/04 06:05:30;;;;;;;;;;;;;;;19.52;74.74;97264.11;600271;232;66109;-73
2022/10/04 06:08:00;;;;;;;;;;;;;;;19.52;75.89;97280.10;600221;235;65040;-74
2022/10/04 06:10:38;;;;;;;;;;;;;;;19.52;75.58;97280.10;600270;233;67005;-73
2022/10/04 06:13:16;;;;;;;;;;;;;;;19.52;76.16;97282.77;598501;236;63676;-72
2022/10/04 06:16:03;;;;;;;;;;;;;;;19.50;75.53;97287.55;598113;236;67337;-72
2022/10/04 06:18:41;;;;;;;;;;;;;;;19.49;74.84;97291.28;598749;237;66923;-72
2022/10/04 06:21:26;;;;;;;;;;;;;;;19.52;74.78;97289.97;598666;237;63816;-71
2022/10/04 06:24:04;;;;;;;;;;;;;;;19.51;75.21;97302.50;598828;235;67082;-71
2022/10/04 06:26:33;;;;;;;;;;;;;;;19.51;71.65;97304.36;598784;237;67860;-74
2022/10/04 06:29:09;;;;;;;;;;;;;;;19.52;76.06;97311.30;598620;237;67594;-74
2022/10/04 06:31:36;;;;;;;;;;;;;;;19.52;75.92;97316.63;598709;236;67876;-74
2022/10/04 06:34:22;;;;;;;;;;;;;;;19.50;71.87;97321.39;598787;237;46703;-76
2022/10/04 06:36:51;;;;;;;;;;;;;;;19.54;71.65;97330.52;598695;236;65169;-76
2022/10/04 06:39:20;;;;;;;;;;;;;;;19.57;74.61;97329.20;598786;237;67043;-75
2022/10/04 06:41:59;;;;;;;;;;;;;;;19.57;73.44;97332.67;595695;234;68228;-77
2022/10/04 06:44:41;;;;;;;;;;;;;;;19.59;76.09;97335.89;594606;238;65153;-75
2022/10/04 06:47:10;;;;;;;;;;;;;;;19.60;76.68;97337.48;594769;238;65039;-70
2022/10/04 06:49:54;;;;;;;;;;;;;;;19.61;76.38;97335.62;594691;238;66940;-72
2022/10/04 06:52:26;;;;;;;;;;;;;;;19.61;76.30;97351.62;594808;238;65080;-68
2022/10/04 06:54:58;;;;;;;;;;;;;;;19.61;76.02;97347.08;594626;238;64932;-67
2022/10/04 06:57:44;;;;;;;;;;;;;;;19.60;75.41;97348.16;594493;238;64858;-71
2022/10/04 07:00:16;;;;;;;;;;;;;;;19.61;74.94;97354.28;594879;238;65082;-67
2022/10/04 07:02:45;;;;;;;;;;;;;;;19.59;73.42;97351.89;594690;238;66752;-67
2022/10/04 07:05:31;;;;;;;;;;;;;;;19.60;72.90;97350.02;594599;238;67025;-70
2022/10/04 07:08:29;;;;;;;;;;;;;;;19.60;72.78;97358.81;594821;238;62831;-67
2022/10/04 07:10:46;;;;;;;;;;;;;;;19.61;72.35;97359.61;594232;238;68065;-66
2022/10/04 07:13:15;;;;;;;;;;;;;;;19.60;71.64;97364.14;593441;239;65770;-67
2022/10/04 07:16:02;;;;;;;;;;;;;;;19.61;71.63;97362.28;594053;238;65165;-66
2022/10/04 07:18:32;;;;;;;;;;;;;;;19.61;72.06;97365.74;594769;238;67042;-65
2022/10/04 07:21:01;;;;;;;;;;;;;;;19.61;72.00;97364.95;594186;238;67030;-67
2022/10/04 07:23:30;;;;;;;;;;;;;;;19.61;71.90;97373.74;594692;238;65005;-67
2022/10/04 07:26:01;;;;;;;;;;;;;;;19.62;71.97;97362.05;594827;238;64592;-67
2022/10/04 07:31:24;;;;;;;;;;;;;;;19.63;72.92;97366.30;594774;238;65247;-69
2022/10/04 07:33:54;;;;;;;;;;;;;;;19.64;73.46;97367.94;594702;238;65889;-70
2022/10/04 07:36:23;;;;;;;;;;;;;;;19.63;72.29;97374.30;594651;238;66965;-67
2022/10/04 07:38:52;;;;;;;;;;;;;;;19.64;73.13;97373.27;594550;238;64922;-69
2022/10/04 07:41:24;;;;;;;;;;;;;;;19.65;72.76;97372.20;596873;237;65863;-70
2022/10/04 07:43:54;;;;;;;;;;;;;;;19.64;73.15;97375.93;596529;237;66971;-70
2022/10/04 07:46:23;;;;;;;;;;;;;;;19.65;73.22;97377.53;596189;238;63756;-68
2022/10/04 07:48:50;;;;;;;;;;;;;;;19.64;73.08;97375.93;595626;238;64975;-69
2022/10/04 07:51:20;;;;;;;;;;;;;;;19.64;73.08;97373.27;596179;238;66615;-68
2022/10/04 07:53:50;;;;;;;;;;;;;;;19.65;72.95;97368.73;596160;238;62849;-68
2022/10/04 07:56:23;;;;;;;;;;;;;;;19.65;73.07;97374.06;595522;238;67211;-68
2022/10/04 07:58:52;;;;;;;;;;;;;;;19.66;72.82;97367.69;595459;238;68172;-68
2022/10/04 08:01:24;;;;;;;;;;;;;;;19.65;73.43;97374.86;596190;235;64832;-68
2022/10/04 08:03:57;;;;;;;;;;;;;;;19.67;73.86;97379.95;596190;238;67283;-71
2022/10/04 08:06:35;;;;;;;;;;;;;;;19.67;73.92;97377.29;595994;238;64729;-69
2022/10/04 08:09:04;;;;;;;;;;;;;;;19.68;74.10;97378.91;596185;238;62946;-71
2022/10/04 08:11:42;;;;;;;;;;;;;;;19.65;72.31;97380.19;595904;238;66676;-71
2022/10/04 08:14:11;;;;;;;;;;;;;;;19.63;74.05;97376.17;596151;237;66989;-70
2022/10/04 08:16:52;;;;;;;;;;;;;;;19.61;73.90;97378.28;596064;238;64879;-71
2022/10/04 08:19:34;;;;;;;;;;;;;;;19.59;74.15;97386.55;596157;236;65731;-69
2022/10/04 08:22:04;;;;;;;;;;;;;;;19.58;74.07;97374.25;595932;238;67724;-69
2022/10/04 08:24:36;;;;;;;;;;;;;;;19.58;74.26;97384.12;594472;238;62875;-69
2022/10/04 08:27:05;;;;;;;;;;;;;;;19.57;74.31;97380.66;596241;238;67079;-70
2022/10/04 08:29:43;;;;;;;;;;;;;;;19.56;73.88;97381.72;596114;238;66692;-69
2022/10/04 08:32:29;;;;;;;;;;;;;;;19.56;74.09;97384.39;596196;238;65222;-68
2022/10/04 08:34:58;;;;;;;;;;;;;;;19.56;74.16;97373.72;596137;238;64482;-69
2022/10/04 08:37:46;;;;;;;;;;;;;;;19.56;74.10;97380.89;595937;238;66690;-70
2022/10/04 08:40:32;;;;;;;;;;;;;;;19.55;74.30;97380.09;595878;237;65228;-69
2022/10/04 08:43:01;;;;;;;;;;;;;;;19.55;74.46;97380.09;594957;238;67125;-72
2022/10/04 08:45:33;;;;;;;;;;;;;;;19.55;74.39;97379.30;595254;238;64860;-69
2022/10/04 08:48:04;;;;;;;;;;;;;;;19.53;73.92;97376.87;594845;238;65053;-70
2022/10/04 08:50:45;;;;;;;;;;;;;;;19.53;73.47;97376.87;594758;238;67083;-70
2022/10/04 08:53:19;;;;;;;;;;;;;;;19.53;73.31;97379.53;594485;238;64892;-71
2022/10/04 08:55:48;;;;;;;;;;;;;;;19.52;73.12;97383.27;594771;238;65945;-71
2022/10/04 08:58:22;;;;;;;;;;;;;;;19.53;73.46;97398.20;593046;239;67236;-70
2022/10/04 09:01:07;;;;;;;;;;;;;;;19.52;73.34;97400.06;593013;239;64907;-69
2022/10/04 09:03:57;;;;;;;;;;;;;;;19.52;73.26;97404.59;592995;239;65181;-69
2022/10/04 09:06:24;;;;;;;;;;;;;;;19.51;73.14;97401.13;592898;238;64405;-70
2022/10/04 09:09:02;;;;;;;;;;;;;;;19.52;70.19;97401.92;593090;239;66686;-71
2022/10/04 09:11:31;;;;;;;;;;;;;;;19.53;72.78;97398.20;593042;239;65171;-71
2022/10/04 09:14:18;;;;;;;;;;;;;;;19.54;72.70;97396.36;593659;238;67292;-71
2022/10/04 09:16:47;;;;;;;;;;;;;;;19.54;73.76;97399.82;594419;238;65433;-71
2022/10/04 09:19:22;;;;;;;;;;;;;;;19.54;73.86;97393.69;593414;239;65087;-73
2022/10/04 09:21:51;;;;;;;;;;;;;;;19.54;74.18;97393.69;594603;237;68149;-78
2022/10/04 09:24:31;;;;;;;;;;;;;;;19.53;69.86;97392.86;594448;238;66857;-73
2022/10/04 09:27:12;;;;;;;;;;;;;;;19.57;73.47;97393.19;594765;238;65244;-73
2022/10/04 09:29:56;;;;;;;;;;;;;;;19.56;72.01;97392.38;594823;238;67064;-79
2022/10/04 09:32:25;;;;;;;;;;;;;;;19.56;71.04;97384.39;594727;238;66939;-77
2022/10/04 09:34:54;;;;;;;;;;;;;;;19.57;69.92;97388.66;594466;238;66079;-74
2022/10/04 09:37:41;;;;;;;;;;;;;;;19.58;69.61;97384.92;594368;238;64442;-74
2022/10/04 09:40:27;;;;;;;;;;;;;;;19.60;68.45;97398.80;594998;237;67221;-77
2022/10/04 09:43:05;;;;;;;;;;;;;;;19.62;68.46;97394.03;594668;238;65124;-78
2022/10/04 09:45:51;;;;;;;;;;;;;;;19.62;67.84;97396.70;594667;236;67483;-75
2022/10/04 09:48:32;;;;;;;;;;;;;;;19.63;67.71;97398.30;594859;238;66847;-75
2022/10/04 09:51:07;;;;;;;;;;;;;;;19.65;67.76;97396.19;594733;238;64001;-76
2022/10/04 09:53:43;;;;;;;;;;;;;;;19.67;67.82;97399.45;594836;238;65750;-76
2022/10/04 09:56:27;;;;;;;;;;;;;;;19.66;67.48;97392.48;594726;236;65772;-76
2022/10/04 09:58:57;;;;;;;;;;;;;;;19.68;67.40;97395.72;594760;238;65203;-77
2022/10/04 10:01:39;;;;;;;;;;;;;;;19.70;67.22;97393.61;591011;238;64932;-77
2022/10/04 10:04:16;;;;;;;;;;;;;;;19.72;67.58;97393.34;594877;238;67101;-80
2022/10/04 10:06:51;;;;;;;;;;;;;;;19.72;68.42;97394.16;594712;238;65099;-77
2022/10/04 10:15:21;;;;;;;;;;;;;;;19.74;68.20;97388.56;593382;238;65150;-73
2022/10/04 10:17:56;;;;;;;;;;;;;;;19.77;67.98;97392.59;594429;237;67258;-77
2022/10/04 10:20:34;;;;;;;;;;;;;;;19.77;67.74;97396.05;594689;238;67069;-74
2022/10/04 10:23:09;;;;;;;;;;;;;;;19.78;67.12;97387.02;594600;238;65142;-74
2022/10/04 10:25:41;;;;;;;;;;;;;;;19.81;67.16;97393.70;594806;238;67087;-75
2022/10/04 10:28:25;;;;;;;;;;;;;;;19.82;66.53;97385.44;594565;238;64612;-75
2022/10/04 10:31:07;;;;;;;;;;;;;;;19.83;66.32;97380.90;594566;238;65103;-73
2022/10/04 10:33:39;;;;;;;;;;;;;;;19.85;66.19;97386.79;591340;238;68011;-74
2022/10/04 10:36:23;;;;;;;;;;;;;;;19.86;65.91;97393.72;594550;238;65070;-76
2022/10/04 10:38:52;;;;;;;;;;;;;;;19.87;66.31;97387.34;587631;240;65497;-68
2022/10/04 10:41:36;;;;;;;;;;;;;;;19.88;65.92;97384.41;592826;237;67382;-75
2022/10/04 10:44:25;;;;;;;;;;;;;;;19.90;66.42;97389.50;595296;236;67811;-75
2022/10/04 10:47:02;;;;;;;;;;;;;;;19.91;66.28;97381.23;595037;238;63943;-73
2022/10/04 10:49:34;;;;;;;;;;;;;;;19.93;66.27;97388.98;594871;238;67180;-75
2022/10/04 10:52:05;;;;;;;;;;;;;;;19.94;66.13;97385.25;594732;238;67064;-75
2022/10/04 10:54:40;;;;;;;;;;;;;;;19.95;65.90;97378.87;594756;238;63014;-73
2022/10/04 10:57:27;;;;;;;;;;;;;;;19.96;66.25;97381.27;594737;238;66932;-72
2022/10/04 11:00:06;;;;;;;;;;;;;;;19.98;66.14;97385.56;594492;238;66888;-72
2022/10/04 11:02:36;;;;;;;;;;;;;;;19.99;65.35;97379.16;593867;238;65984;-75
2022/10/04 11:05:05;;;;;;;;;;;;;;;20.00;65.65;97384.26;594572;238;67276;-76
2022/10/04 11:07:36;;;;;;;;;;;;;;;20.02;65.47;97378.65;594304;238;67640;-74
2022/10/04 11:10:25;;;;;;;;;;;;;;;20.02;65.66;97382.11;594792;238;66062;-76
2022/10/04 11:13:00;;;;;;;;;;;;;;;20.03;65.18;97383.73;594725;238;67609;-77
2022/10/04 11:15:45;;;;;;;;;;;;;;;20.04;66.01;97388.00;594740;238;67065;-73
2022/10/04 11:18:14;;;;;;;;;;;;;;;20.07;65.17;97397.36;590429;238;66032;-76
2022/10/04 11:20:47;;;;;;;;;;;;;;;20.07;65.71;97382.16;594324;238;64839;-78
2022/10/04 11:23:28;;;;;;;;;;;;;;;20.08;65.35;97385.63;593424;239;64882;-77
2022/10/04 11:26:15;;;;;;;;;;;;;;;20.09;65.82;97385.38;593749;239;65147;-77
2022/10/04 11:28:45;;;;;;;;;;;;;;;20.10;65.54;97381.64;592834;239;67251;-78
2022/10/04 11:31:24;;;;;;;;;;;;;;;20.11;65.64;97387.80;590009;239;66902;-76
2022/10/04 11:33:59;;;;;;;;;;;;;;;20.11;66.12;97387.80;593734;238;63229;-73
2022/10/04 11:36:38;;;;;;;;;;;;;;;20.12;66.12;97389.41;594048;238;65911;-78
2022/10/04 11:39:22;;;;;;;;;;;;;;;20.17;65.34;97382.23;593825;238;65047;-74
2022/10/04 11:41:51;;;;;;;;;;;;;;;20.21;64.98;97381.72;594210;237;63992;-75
2022/10/04 11:44:21;;;;;;;;;;;;;;;20.23;64.80;97385.73;593734;238;67082;-78
2022/10/04 11:46:50;;;;;;;;;;;;;;;20.23;64.87;97376.94;594107;238;66849;-76
2022/10/04 11:49:28;;;;;;;;;;;;;;;20.25;64.93;97386.30;594703;238;65227;-77
2022/10/04 11:51:58;;;;;;;;;;;;;;;20.24;64.68;97379.33;594122;238;67166;-75
2022/10/04 11:54:28;;;;;;;;;;;;;;;20.26;64.62;97381.76;594126;237;64853;-77
2022/10/04 11:57:03;;;;;;;;;;;;;;;20.27;64.66;97386.02;594616;238;65064;-74
2022/10/04 11:59:36;;;;;;;;;;;;;;;20.28;64.90;97385.78;594722;238;67198;-71
2022/10/04 12:02:20;;;;;;;;;;;;;;;20.29;64.82;97381.24;594723;238;64928;-74
2022/10/04 12:04:52;;;;;;;;;;;;;;;20.30;64.83;97385.53;594590;238;65025;-78
2022/10/04 12:07:29;;;;;;;;;;;;;;;20.31;65.09;97387.93;591483;238;67939;-73
2022/10/04 12:10:11;;;;;;;;;;;;;;;20.33;65.36;97393.83;594354;238;66898;-77
2022/10/04 12:12:56;;;;;;;;;;;;;;;20.33;65.28;97385.81;594357;238;64011;-75
2022/10/04 12:15:31;;;;;;;;;;;;;;;20.34;65.50;97395.42;594464;238;67052;-75
2022/10/04 12:18:04;;;;;;;;;;;;;;;20.36;65.55;97389.84;594056;238;64946;-76
2022/10/04 12:20:34;;;;;;;;;;;;;;;20.36;65.60;97384.50;593877;238;65119;-75
2022/10/04 12:23:16;;;;;;;;;;;;;;;20.38;65.77;97390.39;594221;238;67297;-77
2022/10/04 12:25:52;;;;;;;;;;;;;;;20.38;65.67;97383.19;594085;238;68032;-75
2022/10/04 12:28:38;;;;;;;;;;;;;;;20.40;65.58;97390.92;594821;238;63021;-76
2022/10/04 12:31:07;;;;;;;;;;;;;;;20.43;65.67;97395.73;594778;238;64968;-75
2022/10/04 12:33:44;;;;;;;;;;;;;;;20.43;65.60;97387.73;594784;238;46761;-76
2022/10/04 12:36:20;;;;;;;;;;;;;;;20.45;65.51;97385.61;594337;238;63084;-76
2022/10/04 12:39:04;;;;;;;;;;;;;;;20.45;65.38;97385.61;594497;237;64576;-78
2022/10/04 12:41:44;;;;;;;;;;;;;;;20.46;65.72;97379.23;592990;238;64603;-76
2022/10/04 12:44:16;;;;;;;;;;;;;;;20.47;65.16;97391.50;597847;234;62855;-77
2022/10/04 12:47:04;;;;;;;;;;;;;;;20.49;65.25;97388.56;598675;237;65505;-78
2022/10/04 12:49:39;;;;;;;;;;;;;;;20.50;65.39;97388.31;595989;237;66743;-78
2022/10/04 12:52:08;;;;;;;;;;;;;;;20.52;65.53;97388.07;596187;238;65383;-77
2022/10/04 12:54:40;;;;;;;;;;;;;;;20.53;65.68;97387.00;596359;238;66396;-73
2022/10/04 12:57:11;;;;;;;;;;;;;;;20.54;65.62;97386.78;596436;238;64600;-74
2022/10/04 12:59:53;;;;;;;;;;;;;;;20.56;65.93;97384.64;595844;237;65070;-76
2022/10/04 13:02:22;;;;;;;;;;;;;;;20.56;65.61;97381.97;595431;237;67731;-78
2022/10/04 13:04:54;;;;;;;;;;;;;;;20.57;65.55;97391.60;596244;238;68158;-77
2022/10/04 13:07:26;;;;;;;;;;;;;;;20.59;65.62;97400.13;596252;238;65142;-74
2022/10/04 13:10:10;;;;;;;;;;;;;;;20.61;65.71;97392.67;596129;238;67058;-74
2022/10/04 13:12:58;;;;;;;;;;;;;;;20.62;65.50;97393.47;596222;238;67217;-77
2022/10/04 13:15:30;;;;;;;;;;;;;;;20.63;65.34;97392.43;595569;238;62951;-74
2022/10/04 13:18:02;;;;;;;;;;;;;;;20.65;65.30;97402.84;596146;237;67338;-76
2022/10/04 13:20:31;;;;;;;;;;;;;;;20.65;65.18;97398.30;596149;238;66769;-76
2022/10/04 13:23:03;;;;;;;;;;;;;;;20.66;65.21;97393.78;596252;238;63594;-75
2022/10/04 13:25:38;;;;;;;;;;;;;;;20.68;64.97;97403.14;596116;238;64905;-74
2022/10/04 13:28:24;;;;;;;;;;;;;;;20.71;65.32;97396.48;596230;238;64524;-73
2022/10/04 13:30:59;;;;;;;;;;;;;;;20.71;65.38;97401.82;595663;234;65234;-74
2022/10/04 13:33:29;;;;;;;;;;;;;;;20.74;65.53;97409.31;591301;238;69396;-72
2022/10/04 13:35:58;;;;;;;;;;;;;;;20.75;65.72;97413.58;587336;237;67922;-75